createdAt,value
2019-02-26T00:02:19.804Z,34.05
2019-02-26T00:04:51.680Z,32.13
2019-02-26T00:07:24.928Z,34.65
2019-02-26T00:09:55.820Z,32.78
2019-02-26T00:12:26.462Z,35.75
2019-02-26T00:15:00.231Z,37.23
2019-02-26T00:17:29.726Z,32.58
2019-02-26T00:19:59.904Z,31.12
2019-02-26T00:22:32.229Z,32.40
2019-02-26T00:25:03.837Z,32.50
2019-02-26T00:27:35.128Z,33.78
2019-02-26T00:30:14.359Z,29.82
2019-02-26T00:32:46.270Z,32.60
2019-02-26T00:35:19.050Z,30.95
2019-02-26T00:37:50.601Z,33.05
2019-02-26T00:40:20.420Z,32.20
2019-02-26T00:42:54.383Z,28.55
2019-02-26T00:45:24.809Z,36.30
2019-02-26T00:47:54.300Z,30.35
2019-02-26T00:50:24.457Z,27.48
2019-02-26T00:52:57.058Z,29.72
2019-02-26T00:55:29.331Z,24.98
2019-02-26T00:58:00.956Z,26.55
2019-02-26T01:00:32.666Z,23.77
2019-02-26T01:03:03.990Z,23.15
2019-02-26T01:05:36.132Z,22.75
2019-02-26T01:08:10.631Z,18.15
2019-02-26T01:10:39.840Z,21.15
2019-02-26T01:13:10.445Z,18.55
2019-02-26T01:15:40.633Z,18.95
2019-02-26T01:18:10.826Z,20.95
2019-02-26T01:20:41.052Z,24.00
2019-02-26T01:23:11.202Z,19.15
2019-02-26T01:25:41.233Z,18.87
2019-02-26T01:28:14.125Z,19.02
2019-02-26T01:30:43.100Z,18.75
2019-02-26T01:33:13.573Z,18.45
2019-02-26T01:35:44.106Z,22.82
2019-02-26T01:38:14.827Z,20.02
2019-02-26T01:40:48.425Z,20.70
2019-02-26T01:43:17.760Z,26.57
2019-02-26T01:45:48.638Z,23.15
2019-02-26T01:48:19.479Z,25.55
2019-02-26T01:50:49.623Z,24.43
2019-02-26T01:53:21.538Z,26.23
2019-02-26T01:55:52.432Z,24.90
2019-02-26T01:58:22.569Z,23.05
2019-02-26T02:00:55.259Z,30.10
2019-02-26T02:03:25.503Z,23.80
2019-02-26T02:05:56.864Z,20.08
2019-02-26T02:08:27.009Z,21.50
2019-02-26T02:10:59.341Z,26.97
2019-02-26T02:13:30.550Z,22.98
2019-02-26T02:16:04.385Z,22.40
2019-02-26T02:18:34.110Z,19.90
2019-02-26T02:21:04.688Z,22.25
2019-02-26T02:23:34.751Z,23.12
2019-02-26T02:26:06.693Z,24.80
2019-02-26T02:28:36.626Z,22.90
2019-02-26T02:31:06.860Z,23.02
2019-02-26T02:33:37.605Z,23.62
2019-02-26T02:36:11.518Z,26.90
2019-02-26T02:38:39.523Z,25.37
2019-02-26T02:41:09.683Z,24.50
2019-02-26T02:43:40.174Z,28.45
2019-02-26T02:46:10.323Z,27.55
2019-02-26T02:48:40.710Z,29.42
2019-02-26T02:51:13.740Z,30.97
2019-02-26T02:53:45.037Z,29.02
2019-02-26T02:56:15.363Z,26.52
2019-02-26T02:58:46.978Z,25.48
2019-02-26T03:01:20.394Z,22.85
2019-02-26T03:03:50.600Z,31.00
2019-02-26T03:06:24.107Z,29.95
2019-02-26T03:08:54.275Z,27.87
2019-02-26T03:11:24.353Z,26.70
2019-02-26T03:13:54.449Z,30.23
2019-02-26T03:16:27.147Z,25.72
2019-02-26T03:18:57.417Z,29.48
2019-02-26T03:21:28.649Z,27.22
2019-02-26T03:24:00.918Z,27.02
2019-02-26T03:26:31.039Z,26.95
2019-02-26T03:29:01.125Z,26.73
2019-02-26T03:31:34.820Z,34.98
2019-02-26T03:34:08.860Z,24.95
2019-02-26T03:36:37.370Z,26.93
2019-02-26T03:39:07.197Z,27.25
2019-02-26T03:41:37.802Z,31.68
2019-02-26T03:44:08.779Z,31.10
2019-02-26T03:46:38.954Z,30.72
2019-02-26T03:49:09.043Z,27.30
2019-02-26T03:51:39.818Z,29.72
2019-02-26T03:54:09.992Z,32.28
2019-02-26T03:56:40.079Z,27.87
2019-02-26T03:59:11.805Z,26.05
2019-02-26T04:01:42.667Z,23.15
2019-02-26T04:04:13.177Z,24.87
2019-02-26T04:06:45.905Z,24.10
2019-02-26T04:09:17.196Z,27.60
2019-02-26T04:11:48.149Z,27.15
2019-02-26T04:14:20.192Z,23.50
2019-02-26T04:16:50.573Z,23.83
2019-02-26T04:19:26.121Z,27.65
2019-02-26T04:22:29.989Z,27.45
2019-02-26T04:25:22.218Z,25.80
2019-02-26T04:28:05.173Z,27.73
2019-02-26T04:30:56.838Z,28.62
2019-02-26T04:33:55.844Z,26.80
2019-02-26T04:36:28.801Z,29.02
2019-02-26T04:39:24.845Z,24.87
2019-02-26T04:42:10.766Z,27.13
2019-02-26T04:47:21.287Z,20.32
2019-02-26T04:49:50.251Z,25.10
2019-02-26T04:52:20.380Z,27.40
2019-02-26T04:54:50.450Z,30.45
2019-02-26T04:57:20.591Z,28.60
2019-02-26T04:59:51.147Z,30.45
2019-02-26T05:02:21.357Z,24.98
2019-02-26T05:04:51.883Z,24.52
2019-02-26T05:07:22.254Z,24.50
2019-02-26T05:09:53.808Z,25.10
2019-02-26T05:12:25.305Z,31.65
2019-02-26T05:14:56.372Z,31.48
2019-02-26T05:17:28.038Z,25.80
2019-02-26T05:19:58.315Z,30.40
2019-02-26T05:22:30.989Z,31.02
2019-02-26T05:25:01.152Z,26.97
2019-02-26T05:27:31.386Z,24.95
2019-02-26T05:30:01.540Z,27.25
2019-02-26T05:32:33.431Z,29.85
2019-02-26T05:35:03.567Z,26.62
2019-02-26T05:37:35.396Z,25.92
2019-02-26T05:40:09.071Z,25.95
2019-02-26T05:42:38.286Z,24.98
2019-02-26T05:45:09.280Z,27.37
2019-02-26T05:47:40.113Z,27.22
2019-02-26T05:50:14.283Z,31.33
2019-02-26T05:52:42.390Z,26.02
2019-02-26T05:55:16.428Z,33.67
2019-02-26T05:57:44.634Z,29.07
2019-02-26T06:00:18.306Z,28.57
2019-02-26T06:02:48.519Z,28.62
2019-02-26T06:05:20.456Z,32.33
2019-02-26T06:07:52.058Z,36.08
2019-02-26T06:10:24.510Z,38.35
2019-02-26T06:12:54.153Z,33.33
2019-02-26T06:15:25.909Z,33.33
2019-02-26T06:17:56.043Z,33.08
2019-02-26T06:20:28.790Z,25.92
2019-02-26T06:22:57.867Z,33.08
2019-02-26T06:25:28.088Z,28.67
2019-02-26T06:28:02.280Z,38.92
2019-02-26T06:30:30.495Z,32.35
2019-02-26T06:33:04.119Z,35.80
2019-02-26T06:35:33.686Z,32.38
2019-02-26T06:38:04.619Z,31.50
2019-02-26T06:40:36.965Z,31.00
2019-02-26T06:43:07.374Z,33.23
2019-02-26T06:45:37.943Z,36.00
2019-02-26T06:48:12.560Z,29.00
2019-02-26T06:50:43.388Z,32.75
2019-02-26T06:53:13.724Z,29.52
2019-02-26T06:55:44.935Z,44.73
2019-02-26T06:58:23.378Z,34.83
2019-02-26T07:00:55.454Z,30.75
2019-02-26T07:03:25.423Z,26.90
2019-02-26T07:05:55.648Z,30.17
2019-02-26T07:08:28.386Z,33.15
2019-02-26T07:10:57.874Z,31.27
2019-02-26T07:13:28.293Z,25.82
2019-02-26T07:15:58.430Z,35.33
2019-02-26T07:18:28.437Z,45.50
2019-02-26T07:21:00.300Z,38.78
2019-02-26T07:23:32.783Z,35.78
2019-02-26T07:26:02.782Z,32.00
2019-02-26T07:28:32.923Z,30.70
2019-02-26T07:31:04.969Z,35.30
2019-02-26T07:33:36.963Z,38.92
2019-02-26T07:36:06.765Z,33.40
2019-02-26T07:38:41.214Z,40.40
2019-02-26T07:41:09.136Z,46.60
2019-02-26T07:43:41.807Z,33.38
2019-02-26T07:46:14.465Z,34.80
2019-02-26T07:48:46.149Z,40.45
2019-02-26T07:51:16.310Z,36.55
2019-02-26T07:53:50.627Z,34.83
2019-02-26T07:56:18.184Z,34.70
2019-02-26T07:58:48.264Z,38.30
2019-02-26T08:01:18.432Z,37.85
2019-02-26T08:03:49.222Z,39.53
2019-02-26T08:06:20.270Z,44.15
2019-02-26T08:08:50.725Z,37.75
2019-02-26T08:11:21.330Z,44.90
2019-02-26T08:13:52.508Z,48.05
2019-02-26T08:16:25.380Z,38.10
2019-02-26T08:18:57.157Z,38.65
2019-02-26T08:21:29.593Z,42.50
2019-02-26T08:23:58.961Z,45.58
2019-02-26T08:26:29.414Z,49.27
2019-02-26T08:29:00.224Z,62.98
2019-02-26T08:31:31.263Z,52.80
2019-02-26T08:34:01.502Z,43.05
2019-02-26T08:36:31.705Z,40.67
2019-02-26T08:39:01.881Z,69.42
2019-02-26T08:41:33.546Z,49.67
2019-02-26T08:44:03.703Z,43.08
2019-02-26T08:46:33.862Z,45.90
2019-02-26T08:49:08.444Z,45.30
2019-02-26T08:51:35.852Z,39.33
2019-02-26T08:54:05.941Z,39.65
2019-02-26T08:56:36.881Z,36.68
2019-02-26T08:59:07.757Z,46.98
2019-02-26T09:01:37.945Z,40.75
2019-02-26T09:04:08.250Z,37.28
2019-02-26T09:06:38.397Z,37.15
2019-02-26T09:09:08.747Z,36.60
2019-02-26T09:11:38.946Z,35.90
2019-02-26T09:14:12.108Z,41.18
2019-02-26T09:16:41.662Z,41.13
2019-02-26T09:19:12.165Z,38.20
2019-02-26T09:21:44.621Z,32.65
2019-02-26T09:24:15.103Z,29.30
2019-02-26T09:26:45.193Z,31.80
2019-02-26T09:29:17.294Z,34.73
2019-02-26T09:31:47.383Z,30.90
2019-02-26T09:34:17.678Z,35.13
2019-02-26T09:36:50.655Z,35.95
2019-02-26T09:39:20.300Z,29.80
2019-02-26T09:41:50.815Z,26.42
2019-02-26T09:44:21.348Z,24.77
2019-02-26T09:46:51.615Z,23.32
2019-02-26T09:49:21.825Z,25.40
2019-02-26T09:51:51.960Z,32.10
2019-02-26T09:54:22.565Z,30.32
2019-02-26T09:56:52.805Z,29.55
2019-02-26T09:59:24.022Z,29.40
2019-02-26T10:01:54.615Z,29.15
2019-02-26T10:04:26.604Z,28.60
2019-02-26T10:06:57.483Z,31.37
2019-02-26T10:09:27.970Z,37.65
2019-02-26T10:11:58.138Z,27.27
2019-02-26T10:14:29.189Z,31.75
2019-02-26T10:17:00.574Z,27.55
2019-02-26T10:19:33.746Z,21.73
2019-02-26T10:22:06.395Z,27.55
2019-02-26T10:24:37.211Z,23.83
2019-02-26T10:27:10.896Z,28.60
2019-02-26T10:29:41.944Z,39.75
2019-02-26T10:32:11.964Z,41.20
2019-02-26T10:34:42.162Z,46.25
2019-02-26T10:37:12.295Z,48.63
2019-02-26T10:39:44.360Z,41.70
2019-02-26T10:42:14.253Z,45.78
2019-02-26T10:44:44.793Z,56.77
2019-02-26T10:47:14.829Z,53.35
2019-02-26T10:49:46.752Z,46.13
2019-02-26T10:52:19.423Z,46.20
2019-02-26T10:54:48.870Z,40.25
2019-02-26T10:57:19.067Z,47.98
2019-02-26T10:59:49.205Z,48.52
2019-02-26T11:02:22.474Z,42.67
2019-02-26T11:04:53.516Z,40.85
2019-02-26T11:07:23.510Z,39.27
2019-02-26T11:09:55.541Z,39.23
2019-02-26T11:12:28.492Z,47.35
2019-02-26T11:15:00.842Z,33.10
2019-02-26T11:17:31.643Z,35.08
2019-02-26T11:20:04.657Z,38.10
2019-02-26T11:22:33.687Z,45.45
2019-02-26T11:25:04.675Z,36.68
2019-02-26T11:27:35.772Z,41.28
2019-02-26T11:30:09.621Z,31.27
2019-02-26T11:32:42.197Z,30.12
2019-02-26T11:35:15.243Z,33.20
2019-02-26T11:37:47.305Z,32.13
2019-02-26T11:40:22.874Z,36.68
2019-02-26T11:42:52.562Z,32.15
2019-02-26T11:45:23.649Z,36.10
2019-02-26T11:47:55.760Z,35.43
2019-02-26T11:50:28.090Z,42.60
2019-02-26T11:52:58.079Z,35.52
2019-02-26T11:55:31.985Z,30.50
2019-02-26T11:58:01.028Z,40.50
2019-02-26T12:00:37.317Z,33.48
2019-02-26T12:03:07.820Z,37.98
2019-02-26T12:05:39.539Z,33.33
2019-02-26T12:08:12.082Z,38.13
2019-02-26T12:10:43.052Z,34.65
2019-02-26T12:13:14.686Z,32.40
2019-02-26T12:15:45.055Z,34.58
2019-02-26T12:18:17.411Z,31.77
2019-02-26T12:20:48.777Z,34.00
2019-02-26T12:23:22.657Z,30.70
2019-02-26T12:25:53.650Z,37.80
2019-02-26T12:28:25.485Z,35.98
2019-02-26T12:30:58.409Z,28.23
2019-02-26T12:33:32.196Z,25.85
2019-02-26T12:36:02.045Z,29.00
2019-02-26T12:38:31.640Z,30.27
2019-02-26T12:41:02.084Z,26.57
2019-02-26T12:43:33.302Z,26.93
2019-02-26T12:46:04.764Z,21.25
2019-02-26T12:48:37.824Z,23.00
2019-02-26T12:51:08.030Z,21.85
2019-02-26T12:53:49.588Z,29.05
2019-02-26T12:56:20.568Z,29.75
2019-02-26T12:58:52.051Z,26.45
2019-02-26T13:01:21.902Z,25.50
2019-02-26T13:03:54.955Z,23.67
2019-02-26T13:06:23.776Z,27.13
2019-02-26T13:08:53.819Z,19.95
2019-02-26T13:11:25.129Z,24.43
2019-02-26T13:13:55.858Z,21.40
2019-02-26T13:16:26.384Z,18.10
2019-02-26T13:19:00.657Z,23.55
2019-02-26T13:21:28.621Z,16.75
2019-02-26T13:24:05.214Z,19.30
2019-02-26T13:26:34.804Z,15.72
2019-02-26T13:29:02.739Z,17.32
2019-02-26T13:31:35.657Z,15.83
2019-02-26T13:34:04.703Z,13.18
2019-02-26T13:36:36.374Z,18.85
2019-02-26T13:39:07.534Z,13.25
2019-02-26T13:41:39.155Z,13.45
2019-02-26T13:44:10.305Z,18.17
2019-02-26T13:46:40.445Z,16.87
2019-02-26T13:49:10.604Z,19.27
2019-02-26T13:51:40.814Z,16.70
2019-02-26T13:54:11.023Z,14.85
2019-02-26T13:56:41.151Z,18.02
2019-02-26T13:59:11.288Z,21.70
2019-02-26T14:01:41.480Z,18.65
2019-02-26T14:04:11.950Z,26.17
2019-02-26T14:06:42.074Z,30.23
2019-02-26T14:09:12.301Z,33.78
2019-02-26T14:11:42.377Z,29.82
2019-02-26T14:14:12.473Z,27.55
2019-02-26T14:16:43.079Z,26.10
2019-02-26T14:19:13.233Z,35.40
2019-02-26T14:21:43.515Z,32.15
2019-02-26T14:24:13.844Z,33.30
2019-02-26T14:26:44.024Z,39.40
2019-02-26T14:29:31.822Z,39.40
2019-02-26T14:32:19.795Z,41.28
2019-02-26T14:34:49.874Z,41.95
2019-02-26T14:37:20.015Z,38.75
2019-02-26T14:39:50.110Z,35.25
2019-02-26T14:42:21.614Z,36.17
2019-02-26T14:44:52.115Z,35.43
2019-02-26T14:47:22.350Z,37.65
2019-02-26T14:49:52.503Z,33.63
2019-02-26T14:52:23.706Z,40.38
2019-02-26T14:54:53.862Z,42.17
2019-02-26T14:57:25.090Z,35.38
2019-02-26T14:59:55.381Z,36.35
2019-02-26T15:02:25.454Z,35.92
2019-02-26T15:04:57.098Z,39.75
2019-02-26T15:07:27.381Z,40.90
2019-02-26T15:09:57.480Z,37.08
2019-02-26T15:12:27.986Z,40.90
2019-02-26T15:14:58.254Z,44.75
2019-02-26T15:17:28.807Z,39.15
2019-02-26T15:19:58.986Z,39.78
2019-02-26T15:22:29.151Z,38.65
2019-02-26T15:24:59.244Z,44.73
2019-02-26T15:27:35.984Z,38.40
2019-02-26T15:30:01.185Z,40.65
2019-02-26T15:32:31.716Z,35.68
2019-02-26T15:35:01.795Z,35.88
2019-02-26T15:37:31.958Z,39.10
2019-02-26T15:40:02.025Z,31.97
2019-02-26T15:42:34.156Z,36.15
2019-02-26T15:45:06.250Z,35.25
2019-02-26T15:47:36.402Z,33.02
2019-02-26T15:50:10.287Z,33.40
2019-02-26T15:55:15.137Z,32.78
2019-02-26T15:57:45.410Z,38.45
2019-02-26T16:00:19.175Z,37.17
2019-02-26T16:05:20.434Z,37.45
2019-02-26T16:07:50.643Z,37.35
2019-02-26T16:10:22.251Z,39.63
2019-02-26T16:12:52.968Z,36.75
2019-02-26T16:15:23.108Z,39.38
2019-02-26T16:17:53.275Z,43.10
2019-02-26T16:20:23.765Z,40.60
2019-02-26T16:22:53.915Z,42.10
2019-02-26T16:25:24.052Z,43.05
2019-02-26T16:27:54.443Z,45.17
2019-02-26T16:30:26.204Z,41.10
2019-02-26T16:32:56.816Z,46.37
2019-02-26T16:35:27.005Z,50.12
2019-02-26T16:37:57.564Z,51.45
2019-02-26T16:40:31.464Z,48.10
2019-02-26T16:42:59.494Z,47.70
2019-02-26T16:45:34.419Z,50.95
2019-02-26T16:48:01.321Z,55.45
2019-02-26T16:50:32.035Z,57.50
2019-02-26T16:53:02.480Z,52.48
2019-02-26T16:55:32.946Z,55.83
2019-02-26T16:58:03.435Z,49.65
2019-02-26T17:00:33.650Z,51.25
2019-02-26T17:03:03.817Z,61.25
2019-02-26T17:05:33.964Z,50.63
2019-02-26T17:08:04.207Z,48.08
2019-02-26T17:10:34.438Z,49.73
2019-02-26T17:13:04.584Z,47.78
2019-02-26T17:15:36.292Z,51.98
2019-02-26T17:18:09.396Z,42.78
2019-02-26T17:20:38.352Z,46.15
2019-02-26T17:23:13.633Z,45.15
2019-02-26T17:25:41.874Z,53.33
2019-02-26T17:28:12.360Z,53.00
2019-02-26T17:30:43.593Z,47.15
2019-02-26T17:33:14.609Z,46.60
2019-02-26T17:35:45.260Z,47.67
2019-02-26T17:38:17.461Z,40.63
2019-02-26T17:40:47.259Z,51.08
2019-02-26T17:43:17.466Z,42.75
2019-02-26T17:45:47.623Z,55.15
2019-02-26T17:48:17.770Z,44.45
2019-02-26T17:50:48.003Z,43.63
2019-02-26T17:53:18.070Z,40.70
2019-02-26T17:55:48.230Z,42.15
2019-02-26T17:58:18.319Z,47.83
2019-02-26T18:00:53.221Z,45.00
2019-02-26T18:03:25.629Z,46.88
2019-02-26T18:05:55.511Z,37.63
2019-02-26T18:08:25.644Z,43.70
2019-02-26T18:10:55.853Z,50.23
2019-02-26T18:13:26.058Z,46.08
2019-02-26T18:15:56.876Z,46.63
2019-02-26T18:18:27.774Z,41.68
2019-02-26T18:20:58.380Z,53.10
2019-02-26T18:23:28.522Z,42.38
2019-02-26T18:26:00.035Z,41.05
2019-02-26T18:28:30.102Z,50.45
2019-02-26T18:31:00.196Z,40.38
2019-02-26T18:33:30.473Z,41.80
2019-02-26T18:36:01.042Z,45.67
2019-02-26T18:38:31.125Z,51.50
2019-02-26T18:41:01.349Z,52.50
2019-02-26T18:43:32.567Z,54.03
2019-02-26T18:46:03.078Z,51.63
2019-02-26T18:48:33.297Z,55.43
2019-02-26T18:51:03.445Z,51.90
2019-02-26T18:53:33.669Z,53.90
2019-02-26T18:56:04.317Z,51.08
2019-02-26T18:58:35.002Z,47.50
2019-02-26T19:01:05.220Z,54.45
2019-02-26T19:03:35.734Z,39.45
2019-02-26T19:06:05.931Z,41.40
2019-02-26T19:08:38.909Z,47.43
2019-02-26T19:11:08.027Z,40.25
2019-02-26T19:13:38.183Z,39.75
2019-02-26T19:16:08.392Z,34.90
2019-02-26T19:18:38.613Z,38.90
2019-02-26T19:21:08.833Z,36.13
2019-02-26T19:23:39.062Z,38.02
2019-02-26T19:26:13.497Z,31.77
2019-02-26T19:28:42.095Z,38.60
2019-02-26T19:31:12.371Z,35.17
2019-02-26T19:33:42.535Z,34.18
2019-02-26T19:36:13.014Z,39.10
2019-02-26T19:38:43.739Z,31.50
2019-02-26T19:41:16.144Z,37.25
2019-02-26T19:43:47.117Z,30.48
2019-02-26T19:46:17.890Z,32.15
2019-02-26T19:48:49.563Z,40.70
2019-02-26T19:51:22.073Z,39.05
2019-02-26T19:53:51.478Z,36.13
2019-02-26T19:56:23.713Z,36.25
2019-02-26T19:58:53.391Z,32.08
2019-02-26T20:01:25.811Z,39.55
2019-02-26T20:03:55.755Z,35.38
2019-02-26T20:06:26.886Z,36.75
2019-02-26T20:08:58.808Z,39.73
2019-02-26T20:11:28.878Z,38.02
2019-02-26T20:14:04.723Z,36.55
2019-02-26T20:16:30.885Z,38.98
2019-02-26T20:19:01.316Z,36.95
2019-02-26T20:21:31.473Z,35.60
2019-02-26T20:24:01.980Z,35.40
2019-02-26T20:26:32.067Z,41.10
2019-02-26T20:29:02.235Z,40.38
2019-02-26T20:31:32.741Z,40.52
2019-02-26T20:34:04.140Z,40.55
2019-02-26T20:36:35.235Z,43.63
2019-02-26T20:39:07.907Z,46.92
2019-02-26T20:44:10.058Z,40.52
2019-02-26T20:46:40.174Z,42.83
2019-02-26T20:49:12.274Z,42.62
2019-02-26T20:51:42.328Z,39.65
2019-02-26T20:54:12.653Z,37.90
2019-02-26T20:56:44.783Z,34.40
2019-02-26T20:59:17.546Z,36.45
2019-02-26T21:01:47.114Z,36.33
2019-02-26T21:04:17.320Z,45.92
2019-02-26T21:06:50.418Z,38.95
2019-02-26T21:09:19.798Z,35.43
2019-02-26T21:11:50.006Z,32.98
2019-02-26T21:14:20.215Z,36.77
2019-02-26T21:16:53.503Z,35.60
2019-02-26T21:19:22.306Z,36.10
2019-02-26T21:21:52.849Z,37.98
2019-02-26T21:24:23.509Z,35.85
2019-02-26T21:26:54.116Z,37.17
2019-02-26T21:29:24.378Z,44.18
2019-02-26T21:31:56.202Z,37.60
2019-02-26T21:34:26.728Z,35.63
2019-02-26T21:36:57.874Z,38.05
2019-02-26T21:39:28.826Z,37.73
2019-02-26T21:41:59.341Z,34.43
2019-02-26T21:44:29.604Z,30.75
2019-02-26T21:46:59.762Z,35.13
2019-02-26T21:49:30.404Z,31.70
2019-02-26T21:52:00.546Z,34.18
2019-02-26T21:54:30.787Z,33.83
2019-02-26T21:57:01.062Z,33.10
2019-02-26T21:59:32.769Z,33.50
2019-02-26T22:02:03.503Z,34.83
2019-02-26T22:04:33.657Z,39.65
2019-02-26T22:07:03.928Z,38.40
2019-02-26T22:09:34.444Z,38.63
2019-02-26T22:12:04.608Z,44.25
2019-02-26T22:14:36.777Z,43.90
2019-02-26T22:17:06.471Z,53.63
2019-02-26T22:19:37.693Z,39.98
2019-02-26T22:22:08.334Z,41.63
2019-02-26T22:24:40.528Z,38.35
2019-02-26T22:27:10.607Z,41.10
2019-02-26T22:29:40.803Z,40.28
2019-02-26T22:32:10.802Z,40.85
2019-02-26T22:34:41.372Z,42.08
2019-02-26T22:37:11.547Z,42.08
2019-02-26T22:39:42.125Z,45.08
2019-02-26T22:42:12.219Z,39.05
2019-02-26T22:44:42.235Z,50.33
2019-02-26T22:47:13.631Z,46.88
2019-02-26T22:49:43.813Z,45.60
2019-02-26T22:52:13.949Z,37.73
2019-02-26T22:54:45.310Z,41.45
2019-02-26T22:57:15.768Z,42.88
2019-02-26T22:59:45.852Z,41.55
2019-02-26T23:02:16.131Z,42.95
2019-02-26T23:04:46.488Z,40.48
2019-02-26T23:07:16.867Z,37.98
2019-02-26T23:09:52.191Z,36.35
2019-02-26T23:12:21.602Z,36.53
2019-02-26T23:14:52.194Z,36.68
2019-02-26T23:17:24.700Z,41.73
2019-02-26T23:19:54.688Z,38.70
2019-02-26T23:22:24.896Z,39.33
2019-02-26T23:24:54.977Z,40.10
2019-02-26T23:27:25.228Z,35.83
2019-02-26T23:29:56.450Z,35.25
2019-02-26T23:32:27.717Z,38.08
2019-02-26T23:35:14.724Z,36.35
2019-02-26T23:37:45.284Z,29.40
2019-02-26T23:40:16.120Z,34.85
2019-02-26T23:42:46.281Z,34.03
2019-02-26T23:45:17.192Z,31.23
2019-02-26T23:47:47.387Z,32.67
2019-02-26T23:50:18.044Z,31.90
2019-02-26T23:52:48.255Z,30.57
2019-02-26T23:55:18.498Z,31.97
2019-02-26T23:57:48.569Z,34.53
